Time;durP1;ratioP1;P1;durP2;ratioP2;P2;SDS_P1;SDS_P2;PMS_P1;PMS_P2;Temp;Humidity;BMP_temperature;BMP_pressure;BME280_temperature;BME280_humidity;BME280_pressure;Samples;Min_cycle;Max_cycle;Signal;HPM_P1;HPM_P2
2022/08/01 00:00:47;;;;;;;3.53;1.73;;;;;;;18.52;57.57;99626.31;4392618;32;34691;-66
2022/08/01 00:03:15;;;;;;;1.87;1.67;;;;;;;18.27;58.25;99622.09;4392880;32;35091;-66
2022/08/01 00:05:44;;;;;;;2.80;1.77;;;;;;;18.63;57.11;99624.97;4393033;32;34235;-66
2022/08/01 00:08:11;;;;;;;2.67;1.83;;;;;;;18.63;57.11;99624.97;4392702;32;33707;-66
2022/08/01 00:10:39;;;;;;;2.37;1.80;;;;;;;18.57;57.57;99629.75;4391929;32;33829;-65
2022/08/01 00:13:06;;;;;;;2.87;1.80;;;;;;;18.64;57.16;99630.19;4392803;32;34997;-65
2022/08/01 00:15:36;;;;;;;2.30;1.80;;;;;;;18.47;58.16;99627.22;4392621;32;34193;-66
2022/08/01 00:18:04;;;;;;;3.95;1.83;;;;;;;18.50;57.53;99629.34;4403576;32;33808;-67
2022/08/01 00:20:31;;;;;;;2.25;1.65;;;;;;;18.38;58.01;99616.12;4395580;32;34051;-66
2022/08/01 00:22:59;;;;;;;2.00;1.70;;;;;;;18.29;58.91;99620.69;4392306;32;33749;-66
2022/08/01 00:25:29;;;;;;;2.85;1.65;;;;;;;18.34;58.67;99614.31;4392304;32;34160;-66
2022/08/01 00:28:01;;;;;;;2.25;1.73;;;;;;;18.57;57.36;99610.53;4392825;32;33697;-66
2022/08/01 00:30:30;;;;;;;2.40;1.80;;;;;;;18.39;58.04;99609.50;4391963;32;33984;-65
2022/08/01 00:32:58;;;;;;;2.40;1.80;;;;;;;18.51;57.82;99611.78;4392605;32;34026;-66
2022/08/01 00:35:26;;;;;;;2.00;1.75;;;;;;;18.48;57.65;99604.13;4392525;32;34124;-66
2022/08/01 00:37:54;;;;;;;1.98;1.77;;;;;;;18.50;57.20;99604.63;4402401;32;34805;-65
2022/08/01 00:40:21;;;;;;;2.05;1.70;;;;;;;18.42;57.63;99599.84;4392111;32;33983;-66
2022/08/01 00:42:49;;;;;;;2.58;1.73;;;;;;;18.42;57.90;99600.69;4392800;32;34282;-65
2022/08/01 00:45:16;;;;;;;3.17;2.20;;;;;;;18.38;57.98;99607.06;4392103;32;34052;-66
2022/08/01 00:47:44;;;;;;;2.45;1.95;;;;;;;18.39;57.78;99601.25;4392434;32;34682;-66
2022/08/01 00:50:11;;;;;;;1.70;1.60;;;;;;;18.35;57.93;99602.19;4392210;32;33981;-66
2022/08/01 00:52:40;;;;;;;2.15;1.55;;;;;;;18.32;57.69;99603.63;4400549;32;35190;-65
2022/08/01 00:55:08;;;;;;;3.78;2.08;;;;;;;18.13;58.50;99608.38;4391805;32;35026;-67
2022/08/01 00:57:41;;;;;;;2.45;1.67;;;;;;;17.77;59.56;99600.72;4392315;32;33836;-67
2022/08/01 01:00:29;;;;;;;3.35;1.90;;;;;;;18.07;59.02;99602.13;4391994;32;33977;-65
2022/08/01 01:02:59;;;;;;;1.75;1.50;;;;;;;18.01;58.79;99606.94;4392146;32;35200;-66
2022/08/01 01:05:26;;;;;;;2.67;2.00;;;;;;;18.16;58.26;99603.09;4378788;32;35030;-66
2022/08/01 01:08:04;;;;;;;1.83;1.50;;;;;;;18.15;58.00;99606.94;4401535;32;33838;-66
2022/08/01 01:10:39;;;;;;;2.28;1.90;;;;;;;17.98;58.59;99606.72;4377135;32;34048;-67
2022/08/01 01:13:15;;;;;;;2.35;1.80;;;;;;;18.10;58.05;99608.94;4368076;32;35061;-66
2022/08/01 01:15:45;;;;;;;2.08;1.60;;;;;;;18.20;57.73;99617.81;4391696;32;34767;-64
2022/08/01 01:18:34;;;;;;;2.25;1.67;;;;;;;18.19;57.88;99612.66;4391881;32;33691;-66
2022/08/01 01:21:14;;;;;;;2.17;1.80;;;;;;;18.07;58.05;99612.31;4380723;32;33612;-64
2022/08/01 01:23:59;;;;;;;2.05;1.67;;;;;;;18.12;58.03;99617.69;4380502;32;34145;-66
2022/08/01 01:26:33;;;;;;;2.42;1.70;;;;;;;18.20;58.13;99611.53;4394172;32;34012;-65
2022/08/01 01:29:18;;;;;;;1.83;1.60;;;;;;;18.04;58.47;99619.22;4393723;32;33726;-66
2022/08/01 01:31:52;;;;;;;2.33;1.60;;;;;;;17.94;59.28;99616.66;4393988;32;33951;-67
2022/08/01 01:34:21;;;;;;;2.42;1.80;;;;;;;17.84;59.42;99612.16;4380687;32;34281;-66
2022/08/01 01:36:52;;;;;;;2.53;1.70;;;;;;;18.05;58.71;99609.88;4380240;32;34039;-65
2022/08/01 01:39:20;;;;;;;3.17;1.90;;;;;;;18.02;59.20;99611.28;4384406;32;33603;-65
2022/08/01 01:41:48;;;;;;;2.70;1.90;;;;;;;18.06;59.59;99606.03;4380444;32;34741;-66
2022/08/01 01:44:17;;;;;;;1.75;1.60;;;;;;;17.89;59.99;99598.34;4385569;32;33866;-66
2022/08/01 01:46:45;;;;;;;2.10;1.80;;;;;;;17.87;59.93;99603.31;4393588;32;34900;-65
2022/08/01 01:49:13;;;;;;;1.58;1.40;;;;;;;17.99;59.23;99600.09;4392195;32;33613;-67
2022/08/01 01:51:42;;;;;;;1.98;1.42;;;;;;;17.87;60.14;99605.25;4383981;32;34666;-66
2022/08/01 01:54:29;;;;;;;2.08;1.73;;;;;;;18.03;59.33;99603.84;4393690;32;34274;-66
2022/08/01 01:56:58;;;;;;;4.30;1.90;;;;;;;17.67;60.48;99595.38;4380171;32;33955;-65
2022/08/01 01:59:27;;;;;;;2.80;1.77;;;;;;;17.84;60.47;99601.19;4379955;32;33682;-66
2022/08/01 02:01:57;;;;;;;2.80;2.10;;;;;;;17.80;60.15;99600.94;4393373;32;33887;-66
2022/08/01 02:04:42;;;;;;;2.30;1.87;;;;;;;17.66;60.48;99599.25;4381492;32;35151;-66
2022/08/01 02:07:17;;;;;;;2.60;2.00;;;;;;;17.55;61.21;99587.63;4404956;32;34823;-67
2022/08/01 02:09:45;;;;;;;2.97;2.00;;;;;;;17.76;60.25;99591.69;4379222;32;33816;-65
2022/08/01 02:12:14;;;;;;;1.90;1.60;;;;;;;17.56;60.68;99589.28;4379880;32;33906;-66
2022/08/01 02:14:44;;;;;;;2.62;1.80;;;;;;;17.81;59.85;99593.50;4390053;32;33950;-65
2022/08/01 02:17:16;;;;;;;2.00;1.70;;;;;;;18.01;58.90;99584.13;4394900;32;35109;-67
2022/08/01 02:19:44;;;;;;;3.05;2.20;;;;;;;17.92;58.75;99584.00;4385410;32;34552;-67
2022/08/01 02:22:19;;;;;;;2.53;1.98;;;;;;;17.67;59.65;99571.53;4393889;32;34602;-66
2022/08/01 02:24:55;;;;;;;2.45;1.95;;;;;;;17.47;60.29;99572.66;4379971;32;33883;-66
2022/08/01 02:27:41;;;;;;;2.58;2.00;;;;;;;17.25;61.07;99578.78;4389407;32;34715;-66
2022/08/01 02:30:11;;;;;;;2.47;1.95;;;;;;;17.52;60.70;99575.34;4383521;32;34354;-66
2022/08/01 02:32:42;;;;;;;2.08;1.73;;;;;;;17.28;61.33;99578.19;4379752;32;33852;-66
2022/08/01 02:35:13;;;;;;;2.47;1.80;;;;;;;17.53;60.65;99576.16;4383521;32;34070;-66
2022/08/01 02:37:41;;;;;;;3.17;2.00;;;;;;;17.53;61.18;99576.97;4382023;32;35089;-65
2022/08/01 02:40:14;;;;;;;2.80;1.95;;;;;;;17.57;60.44;99571.69;4388276;32;33605;-66
2022/08/01 02:42:48;;;;;;;3.37;1.80;;;;;;;17.63;59.80;99576.78;4393738;32;34099;-65
2022/08/01 02:45:19;;;;;;;;;;;;;;;17.77;59.46;99582.31;4380293;32;35217;-66
2022/08/01 02:47:47;;;;;;;3.10;2.28;;;;;;;17.70;59.69;99581.09;4392131;32;34488;-66
2022/08/01 02:50:16;;;;;;;2.47;1.95;;;;;;;17.40;60.85;99581.28;4379533;32;34436;-67
2022/08/01 02:52:47;;;;;;;3.20;2.05;;;;;;;17.65;59.81;99570.22;4364625;32;34716;-66
2022/08/01 02:55:14;;;;;;;2.95;1.87;;;;;;;17.55;60.00;99563.75;4364856;32;34954;-66
2022/08/01 02:57:43;;;;;;;2.83;2.05;;;;;;;17.69;59.42;99565.72;4364630;32;34382;-67
2022/08/01 03:00:19;;;;;;;2.70;2.17;;;;;;;17.37;60.41;99564.63;4389667;32;33931;-66
2022/08/01 03:02:53;;;;;;;2.17;1.80;;;;;;;17.81;59.08;99563.31;4380161;32;33777;-67
2022/08/01 03:05:22;;;;;;;5.30;2.00;;;;;;;17.71;59.41;99558.00;4379657;32;34091;-67
2022/08/01 03:07:52;;;;;;;2.83;1.87;;;;;;;17.67;59.56;99562.47;4392136;32;34309;-66
2022/08/01 03:10:19;;;;;;;2.47;2.10;;;;;;;17.70;59.51;99559.13;4379543;32;33867;-67
2022/08/01 03:12:48;;;;;;;2.85;2.10;;;;;;;17.56;59.87;99556.38;4379628;32;34031;-65
2022/08/01 03:15:16;;;;;;;2.15;1.67;;;;;;;17.55;60.14;99557.47;4379995;32;32801;-66
2022/08/01 03:17:45;;;;;;;3.05;2.22;;;;;;;17.92;59.16;99556.56;4373194;32;34394;-66
2022/08/01 03:20:15;;;;;;;2.70;2.05;;;;;;;17.91;59.56;99556.88;4384172;32;34552;-65
2022/08/01 03:22:43;;;;;;;3.15;1.90;;;;;;;17.85;59.75;99561.66;4379753;32;33836;-65
2022/08/01 03:25:12;;;;;;;2.12;1.70;;;;;;;17.86;59.63;99557.78;4379522;32;34171;-67
2022/08/01 03:27:42;;;;;;;2.58;2.03;;;;;;;18.10;59.16;99551.31;4379868;32;35043;-67
2022/08/01 03:30:10;;;;;;;3.10;2.05;;;;;;;17.86;59.89;99557.78;4379328;32;34433;-67
2022/08/01 03:32:38;;;;;;;3.30;1.80;;;;;;;17.78;60.02;99552.97;4393135;32;33755;-66
2022/08/01 03:35:06;;;;;;;2.60;2.20;;;;;;;18.15;59.18;99553.97;4383082;32;34983;-66
2022/08/01 03:37:41;;;;;;;3.03;2.22;;;;;;;17.97;59.45;99555.66;4393087;32;34314;-66
2022/08/01 03:40:39;;;;;;;;;;;;;;;17.76;60.32;99547.78;4382209;32;34505;-66
2022/08/01 03:43:11;;;;;;;2.95;2.00;;;;;;;18.11;59.74;99551.00;4392255;32;34325;-66
2022/08/01 03:45:41;;;;;;;2.22;2.03;;;;;;;17.98;60.33;99554.56;4391027;32;34269;-65
2022/08/01 03:48:11;;;;;;;3.05;1.92;;;;;;;18.24;59.85;99555.69;4380072;32;34872;-65
2022/08/01 03:50:44;;;;;;;2.60;2.00;;;;;;;18.54;59.16;99560.88;4377144;32;33796;-67
2022/08/01 03:53:12;;;;;;;4.65;2.03;;;;;;;18.64;58.65;99561.50;4364670;32;33961;-67
2022/08/01 03:55:41;;;;;;;4.12;2.28;;;;;;;19.22;57.29;99561.88;4376589;32;34154;-66
2022/08/01 03:58:09;;;;;;;2.08;1.73;;;;;;;19.22;57.44;99564.63;4377061;32;34147;-66
2022/08/01 04:00:41;;;;;;;2.22;1.80;;;;;;;19.52;56.60;99567.78;4392731;32;34366;-66
2022/08/01 04:03:10;;;;;;;2.75;2.10;;;;;;;19.80;55.78;99577.53;4382155;32;33767;-67
2022/08/01 04:05:41;;;;;;;2.70;1.90;;;;;;;20.04;54.85;99577.22;4379342;32;34183;-66
2022/08/01 04:08:08;;;;;;;2.45;1.77;;;;;;;20.05;54.60;99580.78;4392615;32;35031;-67
2022/08/01 04:10:36;;;;;;;2.50;1.87;;;;;;;20.31;54.39;99569.88;4392385;32;33266;-65
2022/08/01 04:13:04;;;;;;;2.33;1.75;;;;;;;20.57;53.04;99586.53;4392861;32;34085;-66
2022/08/01 04:15:32;;;;;;;2.62;2.00;;;;;;;20.65;52.99;99576.66;4392539;32;34556;-73
2022/08/01 04:17:59;;;;;;;2.05;1.62;;;;;;;20.59;53.97;99589.78;4382293;32;35178;-73
2022/08/01 04:20:26;;;;;;;2.80;1.92;;;;;;;20.79;53.42;99582.84;4392569;32;33677;-71
2022/08/01 04:22:54;;;;;;;1.92;1.70;;;;;;;21.18;51.79;99589.41;4392626;32;34011;-70
2022/08/01 04:25:26;;;;;;;2.28;1.87;;;;;;;21.22;51.27;99584.84;4392698;32;34211;-70
2022/08/01 04:27:54;;;;;;;2.58;1.85;;;;;;;21.20;53.10;99584.38;4383865;32;34253;-71
2022/08/01 04:30:29;;;;;;;2.22;1.73;;;;;;;21.65;51.28;99588.78;4378723;32;33689;-72
2022/08/01 04:32:59;;;;;;;2.67;1.90;;;;;;;21.90;49.59;99587.91;4392373;32;34039;-70
2022/08/01 04:35:27;;;;;;;2.58;1.90;;;;;;;22.11;48.82;99589.97;4391085;32;34894;-72
2022/08/01 04:38:20;;;;;;;1.95;1.67;;;;;;;22.18;48.77;99586.69;4383874;32;34054;-73
2022/08/01 04:40:51;;;;;;;2.22;1.70;;;;;;;22.38;48.77;99591.53;4377614;32;34365;-74
2022/08/01 04:43:18;;;;;;;3.37;1.92;;;;;;;22.27;48.63;99580.03;4404873;32;33919;-71
2022/08/01 04:45:47;;;;;;;2.15;1.60;;;;;;;22.61;49.14;99578.22;4392682;32;35083;-68
2022/08/01 04:48:17;;;;;;;2.30;1.67;;;;;;;22.78;47.50;99582.06;4392959;32;33847;-70
2022/08/01 04:50:45;;;;;;;2.42;1.90;;;;;;;23.16;46.78;99586.72;4389502;32;34533;-69
2022/08/01 04:53:16;;;;;;;2.28;1.60;;;;;;;23.04;46.47;99587.44;4390859;32;34792;-81
2022/08/01 04:55:45;;;;;;;3.58;1.65;;;;;;;23.05;46.76;99589.09;4390395;32;33819;-82
2022/08/01 04:58:15;;;;;;;2.35;1.70;;;;;;;23.22;46.37;99588.94;4391109;32;34346;-69
2022/08/01 05:00:46;;;;;;;2.62;1.67;;;;;;;23.28;47.27;99575.69;4390694;32;34433;-70
2022/08/01 05:03:13;;;;;;;1.92;1.55;;;;;;;23.55;46.37;99583.44;4389564;32;33988;-68
2022/08/01 05:05:41;;;;;;;2.42;1.80;;;;;;;23.73;45.00;99592.41;4383189;32;34274;-69
2022/08/01 05:08:09;;;;;;;2.45;1.73;;;;;;;23.41;47.12;99587.66;4390338;32;33853;-79
2022/08/01 05:10:37;;;;;;;2.05;1.60;;;;;;;23.54;45.68;99590.16;4390918;32;33765;-76
2022/08/01 05:13:06;;;;;;;2.95;1.95;;;;;;;23.82;45.10;99586.00;4390858;32;34683;-75
2022/08/01 05:15:36;;;;;;;2.00;1.75;;;;;;;23.88;45.29;99593.75;4390434;32;34057;-69
2022/08/01 05:18:04;;;;;;;2.78;1.50;;;;;;;23.74;47.30;99591.25;4390561;32;33938;-70
2022/08/01 05:20:36;;;;;;;2.00;1.48;;;;;;;24.11;44.63;99590.59;4390739;32;33658;-72
2022/08/01 05:23:04;;;;;;;1.70;1.50;;;;;;;24.44;43.51;99582.19;4375984;32;33933;-77
2022/08/01 05:25:33;;;;;;;2.50;1.65;;;;;;;24.60;44.06;99585.12;4390772;32;34351;-71
2022/08/01 05:28:20;;;;;;;2.00;1.70;;;;;;;24.75;43.04;99589.13;4390513;32;35491;-72
2022/08/01 05:30:48;;;;;;;2.45;1.70;;;;;;;24.97;42.33;99585.09;4390465;32;34137;-74
2022/08/01 05:33:15;;;;;;;2.92;1.80;;;;;;;25.01;41.94;99594.31;4390607;32;34785;-70
2022/08/01 05:35:43;;;;;;;2.22;1.83;;;;;;;24.90;43.58;99591.22;4391787;32;34330;-79
2022/08/01 05:38:15;;;;;;;2.37;1.90;;;;;;;25.02;42.90;99584.81;4393450;32;34025;-80
2022/08/01 05:40:43;;;;;;;2.35;1.85;;;;;;;24.62;43.47;99585.59;4388131;32;33766;-79
2022/08/01 05:43:10;;;;;;;1.60;1.45;;;;;;;25.30;42.22;99584.09;4390499;32;34540;-80
2022/08/01 05:45:38;;;;;;;1.80;1.42;;;;;;;25.49;41.27;99591.81;4390166;32;33678;-74
2022/08/01 05:48:06;;;;;;;1.92;1.60;;;;;;;25.81;40.61;99586.31;4389597;32;34054;-80
2022/08/01 05:50:33;;;;;;;1.98;1.60;;;;;;;25.97;40.46;99598.31;4403805;32;34498;-75
2022/08/01 05:53:01;;;;;;;5.00;2.10;;;;;;;25.66;42.15;99582.31;4393356;32;33685;-70
2022/08/01 05:55:28;;;;;;;2.05;1.77;;;;;;;25.69;43.01;99589.97;4389885;32;34963;-70
2022/08/01 05:57:56;;;;;;;1.85;1.48;;;;;;;26.33;39.89;99590.91;4390154;32;34077;-77
2022/08/01 06:00:23;;;;;;;2.12;1.55;;;;;;;26.61;39.44;99582.50;4389454;32;34359;-79
2022/08/01 06:02:51;;;;;;;1.98;1.50;;;;;;;26.77;40.00;99588.03;4389856;32;34250;-72
2022/08/01 06:05:18;;;;;;;4.65;1.90;;;;;;;26.73;39.42;99578.78;4389760;32;34166;-73
2022/08/01 06:07:46;;;;;;;1.83;1.65;;;;;;;25.64;40.23;99593.81;4389909;32;34065;-73
2022/08/01 06:10:13;;;;;;;1.48;1.25;;;;;;;25.66;42.04;99588.72;4391542;32;33293;-68
2022/08/01 06:12:41;;;;;;;2.22;1.80;;;;;;;26.50;39.70;99596.09;4391924;32;34871;-76
2022/08/01 06:15:09;;;;;;;2.40;1.75;;;;;;;27.29;37.91;99599.94;4391417;32;34254;-73
2022/08/01 06:17:36;;;;;;;2.17;1.80;;;;;;;26.95;39.40;99603.13;4392940;32;34757;-76
2022/08/01 06:20:05;;;;;;;2.28;1.60;;;;;;;27.92;38.33;99610.00;4392721;32;34420;-74
2022/08/01 06:22:33;;;;;;;2.28;1.50;;;;;;;27.19;40.05;99612.41;4379614;32;34585;-72
2022/08/01 06:25:01;;;;;;;2.33;1.70;;;;;;;27.85;38.87;99596.72;4403457;32;35034;-71
2022/08/01 06:27:28;;;;;;;2.33;1.73;;;;;;;28.62;35.93;99604.09;4407973;32;34223;-74
2022/08/01 06:29:56;;;;;;;1.80;1.45;;;;;;;28.89;35.04;99603.28;4392779;32;34438;-73
2022/08/01 06:32:25;;;;;;;2.67;1.67;;;;;;;29.15;34.48;99600.50;4393145;32;34340;-77
2022/08/01 06:34:54;;;;;;;1.83;1.50;;;;;;;28.64;35.92;99603.72;4392505;32;35143;-72
2022/08/01 06:37:23;;;;;;;1.73;1.42;;;;;;;28.36;35.68;99602.03;4393345;32;34324;-73
2022/08/01 06:39:51;;;;;;;2.83;1.90;;;;;;;27.80;37.92;99603.38;4392831;32;33663;-76
2022/08/01 06:42:18;;;;;;;1.98;1.67;;;;;;;27.98;38.63;99606.53;4393077;32;34887;-77
2022/08/01 06:44:46;;;;;;;2.58;1.75;;;;;;;28.18;38.08;99598.13;4393167;32;33782;-71
2022/08/01 06:47:13;;;;;;;2.33;1.62;;;;;;;28.40;37.22;99596.50;4393016;32;34963;-73
2022/08/01 06:49:41;;;;;;;2.78;1.70;;;;;;;28.84;36.17;99602.44;4392660;32;33555;-73
2022/08/01 06:52:08;;;;;;;3.50;1.27;;;;;;;29.22;35.32;99605.37;4393152;32;34755;-78
2022/08/01 06:54:36;;;;;;;2.05;1.80;;;;;;;29.40;35.34;99608.44;4392739;32;35205;-79
2022/08/01 06:57:07;;;;;;;4.00;1.60;;;;;;;29.65;34.55;99603.97;4392892;32;34223;-71
2022/08/01 06:59:34;;;;;;;2.45;1.58;;;;;;;30.46;33.72;99602.41;4393527;32;33408;-73
2022/08/01 07:02:02;;;;;;;1.73;1.42;;;;;;;31.51;30.50;99608.72;4392920;32;33849;-73
2022/08/01 07:04:30;;;;;;;4.22;1.60;;;;;;;31.55;30.23;99599.13;4393385;32;34306;-71
2022/08/01 07:06:58;;;;;;;2.15;1.55;;;;;;;32.02;30.20;99599.28;4393177;32;34938;-74
2022/08/01 07:09:26;;;;;;;2.17;1.73;;;;;;;32.45;30.54;99600.13;4393031;32;33271;-83
2022/08/01 07:11:54;;;;;;;1.67;1.30;;;;;;;33.30;28.09;99592.81;4403064;32;33933;-75
2022/08/01 07:14:21;;;;;;;1.90;1.20;;;;;;;32.83;28.36;99594.09;4408331;32;34173;-77
2022/08/01 07:16:50;;;;;;;1.62;1.40;;;;;;;34.05;26.07;99594.44;4408263;32;34801;-77
2022/08/01 07:19:17;;;;;;;1.80;1.40;;;;;;;33.84;26.09;99598.19;4408150;32;34645;-74
2022/08/01 07:21:45;;;;;;;2.83;1.40;;;;;;;34.48;24.98;99599.00;4408088;32;34344;-76
2022/08/01 07:24:17;;;;;;;1.85;1.40;;;;;;;34.17;24.96;99596.03;4400091;32;34014;-74
2022/08/01 07:26:48;;;;;;;1.75;1.30;;;;;;;34.18;25.57;99599.63;4385148;32;35136;-78
2022/08/01 07:29:22;;;;;;;1.30;1.10;;;;;;;30.85;30.59;99596.31;4378784;32;33637;-74
2022/08/01 07:31:55;;;;;;;1.62;1.50;;;;;;;31.53;29.59;99584.69;4376865;32;33946;-72
2022/08/01 07:34:23;;;;;;;1.55;1.35;;;;;;;31.26;30.12;99596.16;4378561;32;34165;-77
2022/08/01 07:36:51;;;;;;;1.50;1.40;;;;;;;30.71;30.36;99599.00;4377942;32;34033;-73
2022/08/01 07:39:19;;;;;;;1.90;1.50;;;;;;;31.05;29.79;99605.25;4377004;32;34193;-70
2022/08/01 07:41:46;;;;;;;1.73;1.55;;;;;;;29.98;32.93;99605.13;4388255;32;33944;-68
2022/08/01 07:44:35;;;;;;;2.12;1.52;;;;;;;29.93;33.90;99605.47;4378718;32;33720;-74
2022/08/01 07:47:03;;;;;;;1.75;1.30;;;;;;;29.97;33.14;99602.72;4375025;32;34873;-68
2022/08/01 07:49:31;;;;;;;1.73;1.33;;;;;;;29.48;34.44;99598.94;4376691;32;33391;-74
2022/08/01 07:52:06;;;;;;;1.58;1.48;;;;;;;29.02;33.31;99599.09;4400750;32;34668;-75
2022/08/01 07:54:34;;;;;;;1.80;1.55;;;;;;;29.01;33.08;99601.09;4402401;32;34212;-75
2022/08/01 07:57:02;;;;;;;1.62;1.48;;;;;;;28.68;33.44;99603.75;4389712;32;34157;-73
2022/08/01 07:59:30;;;;;;;1.83;1.23;;;;;;;28.73;32.04;99607.06;4391280;32;33798;-69
2022/08/01 08:01:58;;;;;;;1.62;1.40;;;;;;;28.33;34.34;99608.34;4391551;32;33864;-69
2022/08/01 08:04:26;;;;;;;2.22;1.52;;;;;;;27.92;34.78;99605.22;4391606;32;33974;-71
2022/08/01 08:06:54;;;;;;;1.83;1.42;;;;;;;27.46;35.28;99593.94;4392530;32;34824;-73
2022/08/01 08:09:22;;;;;;;2.30;1.70;;;;;;;27.92;35.27;99596.84;4390360;32;33733;-76
2022/08/01 08:11:50;;;;;;;3.80;1.67;;;;;;;28.25;35.68;99600.22;4378723;32;34007;-69
2022/08/01 08:14:18;;;;;;;1.75;1.45;;;;;;;27.65;37.26;99601.50;4392581;32;34092;-79
2022/08/01 08:16:46;;;;;;;1.40;1.30;;;;;;;27.50;37.18;99608.75;4380914;32;34147;-69
2022/08/01 08:19:13;;;;;;;1.62;1.48;;;;;;;27.57;38.21;99608.91;4407830;32;33364;-78
2022/08/01 08:21:41;;;;;;;2.10;1.83;;;;;;;27.65;39.08;99600.69;4407621;32;34825;-75
2022/08/01 08:24:23;;;;;;;2.53;1.65;;;;;;;27.44;38.96;99606.63;4392820;32;33887;-75
2022/08/01 08:26:58;;;;;;;1.73;1.60;;;;;;;27.46;39.02;99607.88;4407634;32;33895;-77
2022/08/01 08:29:26;;;;;;;2.80;1.62;;;;;;;26.93;39.56;99613.03;4406788;32;33350;-73
2022/08/01 08:31:54;;;;;;;2.17;1.62;;;;;;;27.27;38.25;99614.22;4383679;32;33979;-73
2022/08/01 08:34:24;;;;;;;2.28;1.60;;;;;;;27.12;39.69;99613.06;4378234;32;34223;-73
2022/08/01 08:36:52;;;;;;;1.95;1.52;;;;;;;27.25;38.72;99622.13;4378839;32;35157;-70
2022/08/01 08:39:20;;;;;;;2.72;1.70;;;;;;;26.79;40.08;99619.09;4391101;32;34417;-71
2022/08/01 08:41:48;;;;;;;2.05;1.70;;;;;;;26.85;39.54;99616.84;4391447;32;34852;-71
2022/08/01 08:44:17;;;;;;;1.70;1.58;;;;;;;25.44;41.79;99628.94;4375527;32;34931;-75
2022/08/01 08:46:54;;;;;;;2.10;1.60;;;;;;;26.32;40.42;99633.78;4373681;32;34047;-75
2022/08/01 08:49:25;;;;;;;1.80;1.42;;;;;;;26.57;39.76;99626.91;4379019;32;33736;-70
2022/08/01 08:51:53;;;;;;;2.08;1.67;;;;;;;26.50;40.18;99626.72;4392238;32;33964;-73
2022/08/01 08:54:23;;;;;;;2.35;1.75;;;;;;;26.43;40.88;99632.06;4392093;32;33836;-79
2022/08/01 08:57:01;;;;;;;2.30;1.75;;;;;;;26.56;40.00;99630.03;4391739;32;33994;-72
2022/08/01 08:59:29;;;;;;;2.55;1.70;;;;;;;26.33;40.83;99632.63;4391458;32;33608;-70
2022/08/01 09:01:58;;;;;;;2.47;1.70;;;;;;;26.49;39.67;99633.44;4391839;32;33952;-70
2022/08/01 09:04:26;;;;;;;2.33;1.83;;;;;;;26.94;39.93;99631.38;4392221;32;35007;-70
2022/08/01 09:06:54;;;;;;;2.42;2.00;;;;;;;26.75;40.15;99626.53;4375922;32;34867;-70
2022/08/01 09:09:23;;;;;;;2.42;1.90;;;;;;;26.33;39.61;99635.41;4388779;32;33478;-69
2022/08/01 09:11:50;;;;;;;2.95;1.98;;;;;;;26.39;39.54;99631.16;4375639;32;34442;-71
2022/08/01 09:14:29;;;;;;;2.78;1.95;;;;;;;26.69;39.31;99634.34;4389797;32;34203;-71
2022/08/01 09:17:00;;;;;;;2.60;1.97;;;;;;;26.33;39.46;99627.06;4376088;32;34461;-75
2022/08/01 09:19:40;;;;;;;2.33;2.12;;;;;;;26.50;39.37;99634.22;4389605;32;34610;-74
2022/08/01 09:22:14;;;;;;;3.30;1.83;;;;;;;26.57;39.45;99634.47;4391710;32;34828;-69
2022/08/01 09:24:41;;;;;;;2.30;1.75;;;;;;;26.42;37.92;99635.22;4377700;32;33922;-76
2022/08/01 09:27:18;;;;;;;2.67;1.83;;;;;;;27.15;37.81;99631.06;4391841;32;34101;-74
2022/08/01 09:29:50;;;;;;;3.33;1.85;;;;;;;27.45;37.67;99633.31;4385796;32;33715;-77
2022/08/01 09:32:29;;;;;;;2.37;1.90;;;;;;;26.55;37.25;99637.56;4376383;32;33922;-68
2022/08/01 09:35:22;;;;;;;2.53;2.03;;;;;;;26.76;37.42;99623.41;4376468;32;34224;-72
2022/08/01 09:37:50;;;;;;;2.60;2.10;;;;;;;26.49;38.43;99629.84;4391282;32;34063;-73
2022/08/01 09:40:17;;;;;;;3.15;2.28;;;;;;;26.66;38.56;99621.16;4391417;32;34509;-69
2022/08/01 09:42:51;;;;;;;2.80;1.80;;;;;;;26.77;38.97;99622.22;4366327;32;34875;-69
2022/08/01 09:45:33;;;;;;;2.20;1.80;;;;;;;27.35;36.97;99623.56;4393600;32;35048;-71
2022/08/01 09:48:11;;;;;;;2.55;1.90;;;;;;;27.22;38.03;99627.66;4380685;32;34340;-68
2022/08/01 09:50:44;;;;;;;1.83;1.62;;;;;;;27.30;36.31;99635.81;4393811;32;34728;-69
2022/08/01 09:53:12;;;;;;;2.95;2.30;;;;;;;27.31;37.24;99623.47;4393605;32;34723;-68
2022/08/01 09:56:11;;;;;;;2.67;2.33;;;;;;;27.20;38.51;99623.22;4393021;32;33856;-70
2022/08/01 09:59:05;;;;;;;2.17;1.98;;;;;;;27.06;37.80;99622.88;4393401;32;33964;-67
2022/08/01 10:01:45;;;;;;;2.75;2.28;;;;;;;27.61;37.20;99620.94;4392509;32;33662;-67
2022/08/01 10:04:20;;;;;;;2.45;2.12;;;;;;;27.61;37.03;99618.13;4393564;32;34627;-67
2022/08/01 10:06:52;;;;;;;2.30;1.92;;;;;;;27.57;36.83;99614.47;4393487;32;34058;-72
2022/08/01 10:09:30;;;;;;;3.47;2.60;;;;;;;27.77;36.70;99615.25;4393086;32;34834;-71
2022/08/01 10:12:07;;;;;;;2.67;2.20;;;;;;;27.53;34.61;99612.78;4380889;32;34412;-69
2022/08/01 10:14:44;;;;;;;2.50;2.30;;;;;;;27.26;36.82;99612.63;4393634;32;33878;-69
2022/08/01 10:17:17;;;;;;;;;;;;;;;27.91;36.42;99619.56;4398925;32;34259;-68
2022/08/01 10:19:49;;;;;;;2.35;2.10;;;;;;;27.98;35.35;99616.88;4402319;32;35357;-69
2022/08/01 10:22:18;;;;;;;2.85;2.42;;;;;;;27.72;35.87;99623.12;4395306;32;33723;-69
2022/08/01 10:24:47;;;;;;;3.03;2.30;;;;;;;27.66;36.48;99621.81;4394871;32;34097;-68
2022/08/01 10:27:16;;;;;;;2.75;2.45;;;;;;;28.07;36.92;99609.09;4385648;32;33788;-69
2022/08/01 10:30:03;;;;;;;3.67;2.22;;;;;;;28.60;35.72;99612.03;4377234;32;34556;-68
2022/08/01 10:32:51;;;;;;;2.95;2.20;;;;;;;28.67;34.62;99616.12;4396056;32;34520;-66
2022/08/01 10:35:22;;;;;;;3.10;2.30;;;;;;;28.45;34.30;99609.38;4407164;32;34747;-68
2022/08/01 10:38:10;;;;;;;2.55;2.20;;;;;;;28.47;35.08;99602.22;4406959;32;34210;-71
2022/08/01 10:40:41;;;;;;;2.60;2.05;;;;;;;28.62;34.94;99604.09;4387056;32;34881;-68
2022/08/01 10:43:10;;;;;;;2.42;2.05;;;;;;;28.76;35.53;99603.50;4391843;32;33560;-68
2022/08/01 10:45:39;;;;;;;2.22;1.95;;;;;;;28.71;34.01;99601.03;4393795;32;34074;-67
2022/08/01 10:48:15;;;;;;;2.70;1.80;;;;;;;28.48;35.01;99603.03;4406856;32;33806;-70
2022/08/01 10:50:52;;;;;;;3.00;1.90;;;;;;;28.68;34.69;99593.41;4388928;32;33798;-71
2022/08/01 10:53:23;;;;;;;2.58;2.28;;;;;;;29.12;34.89;99601.28;4376072;32;34547;-67
2022/08/01 10:56:09;;;;;;;2.85;2.10;;;;;;;28.76;35.22;99603.50;4390949;32;34696;-70
2022/08/01 10:58:42;;;;;;;2.45;2.08;;;;;;;29.04;34.61;99591.94;4390940;32;34316;-70
2022/08/01 11:01:31;;;;;;;2.70;2.10;;;;;;;28.92;33.68;99594.16;4391382;32;34236;-68
2022/08/01 11:03:59;;;;;;;2.25;1.92;;;;;;;29.12;33.60;99590.09;4391475;32;33892;-69
2022/08/01 11:06:34;;;;;;;3.60;2.08;;;;;;;28.41;34.67;99586.97;4391534;32;34443;-67
2022/08/01 11:09:05;;;;;;;3.37;2.20;;;;;;;28.86;33.98;99588.09;4391373;32;33898;-68
2022/08/01 11:11:57;;;;;;;2.60;1.87;;;;;;;28.38;33.94;99587.69;4391159;32;34122;-67
2022/08/01 11:14:24;;;;;;;2.75;2.05;;;;;;;28.16;33.96;99580.94;4391549;32;33765;-67
2022/08/01 11:17:35;;;;;;;2.20;2.00;;;;;;;28.46;34.02;99583.84;4389658;32;33768;-72
2022/08/01 11:20:18;;;;;;;3.12;2.03;;;;;;;28.25;33.67;99573.16;4387991;32;34986;-66
2022/08/01 11:23:16;;;;;;;2.72;1.80;;;;;;;28.18;34.57;99568.22;4385705;32;33720;-68
2022/08/01 11:25:46;;;;;;;2.22;1.75;;;;;;;28.54;34.61;99576.44;4381216;32;33405;-67
2022/08/01 11:28:33;;;;;;;2.15;1.70;;;;;;;28.91;32.50;99570.22;4391707;32;34762;-71
2022/08/01 11:31:10;;;;;;;2.22;1.70;;;;;;;28.38;32.64;99566.19;4377732;32;34188;-71
2022/08/01 11:33:47;;;;;;;2.33;1.80;;;;;;;28.76;33.97;99574.78;4391404;32;34250;-70
2022/08/01 11:36:20;;;;;;;1.65;1.40;;;;;;;28.86;33.45;99574.13;4391652;32;34304;-72
2022/08/01 11:39:07;;;;;;;1.60;1.50;;;;;;;28.92;31.25;99569.03;4391181;32;33554;-67
2022/08/01 11:41:41;;;;;;;2.25;1.58;;;;;;;29.08;31.23;99575.25;4391228;32;34728;-69
2022/08/01 11:44:22;;;;;;;2.20;1.70;;;;;;;29.01;30.90;99567.56;4391077;32;34714;-69
2022/08/01 11:46:58;;;;;;;2.87;1.58;;;;;;;28.76;31.37;99570.00;4386022;32;33874;-68
2022/08/01 11:49:36;;;;;;;2.15;1.48;;;;;;;28.83;32.78;99563.72;4391657;32;33918;-69
2022/08/01 11:52:07;;;;;;;1.83;1.60;;;;;;;29.03;32.50;99568.00;4391690;32;34459;-69
2022/08/01 11:54:41;;;;;;;1.70;1.60;;;;;;;28.82;31.42;99562.91;4390914;32;35016;-67